createdAt,value
2022-10-31T06:57:16.164Z,13.60
2022-10-31T06:59:50.232Z,13.20
2022-10-31T07:02:38.707Z,12.70
2022-10-31T07:05:33.169Z,16.40
2022-10-31T10:57:23.065Z,13.70
2022-10-31T10:59:52.497Z,13.30
2022-10-31T11:02:26.161Z,13.80
2022-10-31T11:04:58.781Z,12.30
2022-10-31T11:07:46.364Z,13.40
2022-10-31T11:10:16.829Z,11.00
2022-10-31T11:13:00.063Z,13.90
2022-10-31T11:15:34.028Z,8.70
2022-10-31T11:18:09.649Z,9.30
2022-10-31T11:21:02.878Z,14.70
2022-10-31T11:23:38.416Z,14.20
2022-10-31T11:26:25.956Z,12.50
2022-10-31T11:29:01.384Z,10.40
2022-10-31T11:31:35.323Z,12.30
2022-10-31T11:34:34.285Z,11.50
2022-10-31T11:37:46.817Z,12.00
2022-10-31T11:40:31.657Z,10.70
2022-10-31T11:43:31.640Z,11.40
2022-10-31T11:47:08.888Z,10.60
2022-10-31T11:50:30.965Z,10.80
2022-10-31T11:53:23.725Z,9.60
2022-10-31T11:56:30.534Z,10.10
2022-10-31T12:13:51.844Z,11.10
2022-10-31T12:17:27.006Z,11.70
2022-10-31T12:20:27.557Z,10.90
2022-10-31T12:23:38.451Z,14.10
2022-10-31T12:26:59.308Z,13.30
2022-10-31T12:30:20.994Z,11.30
2022-10-31T12:38:11.089Z,9.30
2022-10-31T12:41:58.012Z,12.10
2022-10-31T12:45:13.651Z,10.50
2022-10-31T12:48:57.365Z,10.50
2022-10-31T12:54:48.074Z,7.50
2022-10-31T12:57:41.902Z,7.40
2022-10-31T13:08:51.824Z,11.20
2022-10-31T13:17:38.391Z,12.50
2022-10-31T13:20:24.766Z,9.30
2022-10-31T13:26:35.662Z,9.30
2022-10-31T13:29:31.726Z,10.10
2022-10-31T13:32:07.141Z,7.10
2022-10-31T13:34:45.910Z,7.80
2022-10-31T13:37:41.085Z,9.10
2022-10-31T13:44:05.694Z,9.50
2022-10-31T13:46:35.734Z,10.50
2022-10-31T13:49:05.356Z,8.40
2022-10-31T13:51:36.375Z,9.90
2022-10-31T13:54:34.203Z,9.80
2022-10-31T13:57:02.689Z,9.40
2022-10-31T13:59:38.502Z,9.40
2022-10-31T14:02:20.614Z,11.30
2022-10-31T14:05:00.975Z,12.10
2022-10-31T14:07:31.580Z,10.40
2022-10-31T14:18:32.740Z,9.40
2022-10-31T14:22:52.281Z,11.00
2022-10-31T14:29:39.183Z,7.20
2022-10-31T14:32:47.415Z,7.00
2022-10-31T15:21:11.570Z,14.90
2022-10-31T15:23:39.897Z,18.50
2022-10-31T15:26:06.773Z,19.30
2022-10-31T15:28:34.366Z,20.20
2022-10-31T15:31:04.262Z,20.50
2022-10-31T15:33:47.031Z,18.90
2022-10-31T15:49:54.972Z,31.60
2022-10-31T15:59:07.679Z,29.20
2022-10-31T16:01:34.919Z,27.50
2022-10-31T16:04:05.253Z,29.60
2022-10-31T16:06:34.864Z,28.60
2022-10-31T16:09:02.655Z,25.90
2022-10-31T16:20:21.579Z,25.70
2022-10-31T16:36:49.188Z,51.70
2022-10-31T16:39:17.760Z,47.00
2022-10-31T16:41:47.139Z,49.20
2022-10-31T16:44:27.331Z,48.90
2022-10-31T16:47:14.417Z,46.00
2022-10-31T16:49:44.308Z,52.30
2022-10-31T16:52:11.307Z,54.00
2022-10-31T16:54:38.190Z,66.50
2022-10-31T16:57:06.460Z,73.70
2022-10-31T16:59:34.493Z,62.90
2022-10-31T17:02:03.891Z,70.20
2022-10-31T17:04:31.380Z,65.10
2022-10-31T17:06:59.668Z,65.00
2022-10-31T17:09:27.323Z,61.90
2022-10-31T17:11:55.038Z,68.60
2022-10-31T17:14:21.995Z,67.10
2022-10-31T17:16:50.367Z,64.90
2022-10-31T17:19:18.571Z,73.90
2022-10-31T17:21:45.397Z,70.80
2022-10-31T17:24:14.555Z,68.90
2022-10-31T17:26:44.547Z,66.00
2022-10-31T17:29:11.559Z,64.40
2022-10-31T17:31:43.097Z,65.00
2022-10-31T17:34:10.053Z,67.90
2022-10-31T17:36:37.463Z,66.80
2022-10-31T17:39:08.078Z,61.70
2022-10-31T17:41:35.995Z,62.20
2022-10-31T17:44:03.149Z,66.80
2022-10-31T17:46:39.622Z,67.00
2022-10-31T17:49:08.530Z,61.40
2022-10-31T17:51:45.388Z,65.70
2022-10-31T17:54:12.412Z,60.50
2022-10-31T17:56:39.333Z,53.40
2022-10-31T17:59:07.623Z,50.90
2022-10-31T18:01:34.783Z,51.90
2022-10-31T18:04:02.156Z,50.10
2022-10-31T18:06:31.977Z,50.60
2022-10-31T18:09:03.502Z,56.20
2022-10-31T18:11:31.258Z,57.30
2022-10-31T18:13:59.005Z,49.00
2022-10-31T18:16:25.862Z,55.80
2022-10-31T18:18:58.057Z,51.50
2022-10-31T18:21:26.201Z,55.40
2022-10-31T18:24:03.309Z,51.10
2022-10-31T18:26:36.134Z,61.90
2022-10-31T18:29:03.831Z,63.30
2022-10-31T18:31:30.601Z,53.50
2022-10-31T18:33:58.412Z,61.10
2022-10-31T18:36:25.664Z,68.10
2022-10-31T18:38:52.807Z,64.80
2022-10-31T18:41:19.656Z,73.90
2022-10-31T18:43:48.369Z,59.90
2022-10-31T18:46:25.284Z,65.70
2022-10-31T18:48:52.115Z,67.70
2022-10-31T18:51:19.849Z,64.90
2022-10-31T18:53:57.435Z,63.50
2022-10-31T18:56:25.343Z,65.90
2022-10-31T18:58:52.304Z,61.80
2022-10-31T19:01:21.113Z,59.10
2022-10-31T19:03:56.639Z,65.20
2022-10-31T19:06:30.378Z,59.50
2022-10-31T19:09:03.932Z,58.60
2022-10-31T19:11:36.779Z,57.60
2022-10-31T19:14:05.087Z,60.30
2022-10-31T19:16:32.435Z,61.30
2022-10-31T19:18:59.814Z,56.40
2022-10-31T19:21:27.046Z,52.90
2022-10-31T19:23:56.007Z,57.70
2022-10-31T19:26:24.335Z,55.40
2022-10-31T19:28:51.559Z,61.90
2022-10-31T19:31:19.404Z,58.80
2022-10-31T19:33:46.833Z,57.30
2022-10-31T19:36:18.503Z,53.80
2022-10-31T19:38:48.045Z,59.10
2022-10-31T19:41:23.752Z,50.30
2022-10-31T19:43:50.570Z,51.90
2022-10-31T19:46:27.742Z,58.90
2022-10-31T19:49:10.169Z,55.30
2022-10-31T19:51:37.170Z,58.70
2022-10-31T19:54:04.072Z,56.00
2022-10-31T19:56:30.874Z,54.80
2022-10-31T19:58:59.410Z,57.40
2022-10-31T20:01:27.129Z,62.40
2022-10-31T20:03:53.868Z,56.90
2022-10-31T20:06:32.581Z,53.70
2022-10-31T20:09:02.177Z,61.30
2022-10-31T20:11:30.477Z,54.90
2022-10-31T20:13:59.045Z,56.10
2022-10-31T20:18:54.084Z,60.70
2022-10-31T20:21:27.806Z,59.60
2022-10-31T20:24:00.439Z,51.50
2022-10-31T20:26:33.671Z,57.80
2022-10-31T20:29:01.758Z,56.40
2022-10-31T20:31:34.522Z,52.40
2022-10-31T20:34:02.067Z,55.10
2022-10-31T20:36:30.345Z,51.40
2022-10-31T20:38:58.161Z,61.40
2022-10-31T20:41:25.649Z,55.00
2022-10-31T20:43:56.276Z,57.10
2022-10-31T20:46:27.938Z,53.10
2022-10-31T20:48:55.219Z,51.80
2022-10-31T20:57:22.274Z,52.50
2022-10-31T20:59:51.722Z,56.60
2022-10-31T21:02:20.161Z,53.30
2022-10-31T21:04:50.597Z,56.00
2022-10-31T21:07:21.089Z,49.40
2022-10-31T21:09:51.125Z,47.70
2022-10-31T21:12:19.913Z,46.70
2022-10-31T21:14:49.896Z,52.40
2022-10-31T21:17:51.305Z,47.00
2022-10-31T21:20:26.634Z,44.90
2022-10-31T21:28:11.323Z,47.50
2022-10-31T21:30:46.945Z,45.20
2022-10-31T21:33:14.994Z,42.80
2022-10-31T21:35:50.762Z,44.00
2022-10-31T21:38:20.131Z,39.50
2022-10-31T21:40:48.624Z,47.40
2022-10-31T21:43:16.568Z,46.30
2022-10-31T21:45:44.513Z,46.70
2022-10-31T21:48:12.549Z,48.00
2022-10-31T21:50:40.472Z,43.00
2022-10-31T21:53:26.791Z,43.90
2022-10-31T21:55:54.761Z,46.80
2022-10-31T21:58:22.722Z,48.30
2022-10-31T22:00:50.793Z,45.50
2022-10-31T22:03:18.869Z,45.90
2022-10-31T22:05:47.449Z,41.40
2022-10-31T22:08:15.391Z,47.10
2022-10-31T22:10:43.363Z,40.30
2022-10-31T22:13:13.612Z,39.70
2022-10-31T22:15:41.787Z,39.80
2022-10-31T22:18:09.898Z,44.80
2022-10-31T22:20:38.045Z,44.00
2022-10-31T22:23:15.995Z,45.20
2022-10-31T22:25:58.490Z,42.10
2022-10-31T22:28:32.378Z,43.60
2022-10-31T22:31:09.243Z,43.10
2022-10-31T22:33:40.438Z,49.20
2022-10-31T22:36:38.425Z,45.50
2022-10-31T22:39:07.188Z,42.50
2022-10-31T22:41:36.366Z,47.60
2022-10-31T22:44:13.516Z,50.70
2022-10-31T22:46:41.768Z,43.60
2022-10-31T22:49:15.195Z,43.70
2022-10-31T22:51:44.827Z,46.40
2022-10-31T22:54:17.342Z,43.70
2022-10-31T22:56:46.289Z,44.10
2022-10-31T22:59:16.184Z,46.30
2022-10-31T23:01:46.002Z,47.60
2022-10-31T23:04:16.436Z,39.60
2022-10-31T23:06:46.370Z,43.20
2022-10-31T23:09:17.293Z,39.10
2022-10-31T23:11:46.912Z,42.80
2022-10-31T23:14:20.869Z,39.60
2022-10-31T23:16:56.472Z,37.00
2022-10-31T23:19:27.864Z,43.20
2022-10-31T23:22:03.024Z,35.90
2022-10-31T23:24:39.128Z,38.10
2022-10-31T23:27:17.789Z,39.30
2022-10-31T23:29:50.784Z,38.70
2022-10-31T23:32:27.426Z,39.60
2022-10-31T23:34:58.131Z,40.10
2022-10-31T23:37:29.022Z,35.40
2022-10-31T23:39:57.267Z,39.20
2022-10-31T23:42:28.165Z,39.60
2022-10-31T23:44:56.661Z,39.50
2022-10-31T23:49:52.803Z,37.00
2022-10-31T23:52:21.276Z,44.10
2022-10-31T23:54:50.672Z,40.80
2022-10-31T23:57:19.926Z,40.00
2022-10-31T23:59:48.095Z,46.40
